sensor_id;sensor_type;location;lat;lon;timestamp;pressure;altitude;pressure_sealevel;temperature;humidity
40918;BME280;26644;50.248;19.032;2023-09-19T00:00:10;97500.97;;;19.80;64.27
40918;BME280;26644;50.248;19.032;2023-09-19T00:03:16;97512.69;;;19.89;65.21
40918;BME280;26644;50.248;19.032;2023-09-19T00:06:21;97517.91;;;19.91;64.84
40918;BME280;26644;50.248;19.032;2023-09-19T00:09:27;97517.47;;;19.89;64.59
40918;BME280;26644;50.248;19.032;2023-09-19T00:12:34;97511.09;;;19.88;63.97
40918;BME280;26644;50.248;19.032;2023-09-19T00:15:40;97506.72;;;19.87;63.98
40918;BME280;26644;50.248;19.032;2023-09-19T00:18:50;97503.00;;;19.83;63.92
40918;BME280;26644;50.248;19.032;2023-09-19T00:21:54;97496.13;;;19.77;64.08
40918;BME280;26644;50.248;19.032;2023-09-19T00:24:59;97490.84;;;19.72;63.88
40918;BME280;26644;50.248;19.032;2023-09-19T00:28:06;97503.13;;;19.71;63.78
40918;BME280;26644;50.248;19.032;2023-09-19T00:31:11;97493.44;;;19.65;64.31
40918;BME280;26644;50.248;19.032;2023-09-19T00:34:15;97483.41;;;19.60;64.17
40918;BME280;26644;50.248;19.032;2023-09-19T00:37:22;97487.00;;;19.60;64.15
40918;BME280;26644;50.248;19.032;2023-09-19T00:40:26;97484.56;;;19.59;64.22
40918;BME280;26644;50.248;19.032;2023-09-19T00:43:34;97481.78;;;19.59;64.58
40918;BME280;26644;50.248;19.032;2023-09-19T00:46:38;97475.84;;;19.60;64.32
40918;BME280;26644;50.248;19.032;2023-09-19T00:49:45;97479.47;;;19.61;64.46
40918;BME280;26644;50.248;19.032;2023-09-19T00:52:54;97461.13;;;19.60;64.57
40918;BME280;26644;50.248;19.032;2023-09-19T00:56:02;97470.84;;;19.66;64.25
40918;BME280;26644;50.248;19.032;2023-09-19T00:59:11;97468.19;;;19.73;64.15
40918;BME280;26644;50.248;19.032;2023-09-19T01:02:16;97454.72;;;19.75;64.31
40918;BME280;26644;50.248;19.032;2023-09-19T01:05:22;97444.53;;;19.83;64.24
40918;BME280;26644;50.248;19.032;2023-09-19T01:08:27;97465.88;;;19.95;63.78
40918;BME280;26644;50.248;19.032;2023-09-19T01:11:37;97455.19;;;19.97;63.67
40918;BME280;26644;50.248;19.032;2023-09-19T01:14:55;97443.25;;;19.97;63.82
40918;BME280;26644;50.248;19.032;2023-09-19T01:18:16;97447.41;;;20.06;64.25
40918;BME280;26644;50.248;19.032;2023-09-19T01:21:42;97442.63;;;20.07;63.83
40918;BME280;26644;50.248;19.032;2023-09-19T01:25:19;97431.44;;;20.03;63.13
40918;BME280;26644;50.248;19.032;2023-09-19T01:29:06;97431.34;;;20.00;63.60
40918;BME280;26644;50.248;19.032;2023-09-19T01:32:33;97425.69;;;19.96;63.52
40918;BME280;26644;50.248;19.032;2023-09-19T01:35:40;97424.91;;;19.96;63.70
40918;BME280;26644;50.248;19.032;2023-09-19T01:38:45;97421.28;;;19.95;63.60
40918;BME280;26644;50.248;19.032;2023-09-19T01:42:01;97424.44;;;19.93;63.81
40918;BME280;26644;50.248;19.032;2023-09-19T01:45:26;97416.19;;;19.97;64.01
40918;BME280;26644;50.248;19.032;2023-09-19T01:48:46;97419.72;;;19.94;63.69
40918;BME280;26644;50.248;19.032;2023-09-19T01:52:05;97420.38;;;19.87;64.06
40918;BME280;26644;50.248;19.032;2023-09-19T01:55:19;97421.53;;;19.86;64.08
40918;BME280;26644;50.248;19.032;2023-09-19T01:58:33;97428.28;;;19.85;64.22
40918;BME280;26644;50.248;19.032;2023-09-19T02:01:44;97418.28;;;19.84;64.24
40918;BME280;26644;50.248;19.032;2023-09-19T02:04:54;97416.34;;;19.85;64.49
40918;BME280;26644;50.248;19.032;2023-09-19T02:08:03;97423.75;;;19.97;64.29
40918;BME280;26644;50.248;19.032;2023-09-19T02:11:07;97422.84;;;19.92;64.35
40918;BME280;26644;50.248;19.032;2023-09-19T02:14:12;97419.47;;;19.83;64.66
40918;BME280;26644;50.248;19.032;2023-09-19T02:17:17;97415.75;;;19.75;64.87
40918;BME280;26644;50.248;19.032;2023-09-19T02:20:25;97419.31;;;19.76;65.30
40918;BME280;26644;50.248;19.032;2023-09-19T02:23:30;97418.06;;;19.73;65.29
40918;BME280;26644;50.248;19.032;2023-09-19T02:26:35;97418.94;;;19.77;65.22
40918;BME280;26644;50.248;19.032;2023-09-19T02:29:41;97417.28;;;19.73;65.33
40918;BME280;26644;50.248;19.032;2023-09-19T02:32:46;97415.56;;;19.68;65.31
40918;BME280;26644;50.248;19.032;2023-09-19T02:35:57;97420.44;;;19.71;65.36
40918;BME280;26644;50.248;19.032;2023-09-19T02:39:03;97419.59;;;19.71;65.69
40918;BME280;26644;50.248;19.032;2023-09-19T02:42:09;97413.31;;;19.74;65.55
40918;BME280;26644;50.248;19.032;2023-09-19T02:45:15;97412.59;;;19.77;65.73
40918;BME280;26644;50.248;19.032;2023-09-19T02:48:21;97415.00;;;19.79;65.78
40918;BME280;26644;50.248;19.032;2023-09-19T02:51:29;97412.97;;;19.75;65.89
40918;BME280;26644;50.248;19.032;2023-09-19T02:54:34;97413.31;;;19.74;66.06
40918;BME280;26644;50.248;19.032;2023-09-19T02:57:39;97408.63;;;19.78;66.13
40918;BME280;26644;50.248;19.032;2023-09-19T03:00:44;97406.84;;;19.70;66.46
40918;BME280;26644;50.248;19.032;2023-09-19T03:03:52;97416.22;;;19.62;66.73
40918;BME280;26644;50.248;19.032;2023-09-19T03:06:59;97412.94;;;19.56;67.16
40918;BME280;26644;50.248;19.032;2023-09-19T03:10:07;97416.78;;;19.51;67.67
40918;BME280;26644;50.248;19.032;2023-09-19T03:13:13;97405.44;;;19.40;68.40
40918;BME280;26644;50.248;19.032;2023-09-19T03:16:19;97409.69;;;19.34;69.23
40918;BME280;26644;50.248;19.032;2023-09-19T03:19:26;97396.84;;;19.30;69.98
40918;BME280;26644;50.248;19.032;2023-09-19T03:22:35;97400.50;;;19.34;70.48
40918;BME280;26644;50.248;19.032;2023-09-19T03:25:39;97396.19;;;19.36;70.70
40918;BME280;26644;50.248;19.032;2023-09-19T03:28:44;97405.06;;;19.42;71.05
40918;BME280;26644;50.248;19.032;2023-09-19T03:31:49;97394.66;;;19.39;71.19
40918;BME280;26644;50.248;19.032;2023-09-19T03:34:56;97394.47;;;19.48;71.37
40918;BME280;26644;50.248;19.032;2023-09-19T03:41:08;97403.41;;;19.57;71.91
40918;BME280;26644;50.248;19.032;2023-09-19T03:44:15;97395.06;;;19.57;72.87
40918;BME280;26644;50.248;19.032;2023-09-19T03:47:20;97393.66;;;19.47;74.40
40918;BME280;26644;50.248;19.032;2023-09-19T03:50:27;97399.44;;;19.38;75.60
40918;BME280;26644;50.248;19.032;2023-09-19T03:53:34;97404.03;;;19.31;76.37
40918;BME280;26644;50.248;19.032;2023-09-19T03:56:39;97390.13;;;19.15;76.86
40918;BME280;26644;50.248;19.032;2023-09-19T03:59:44;97386.34;;;19.07;77.88
40918;BME280;26644;50.248;19.032;2023-09-19T04:02:48;97395.25;;;18.97;78.52
40918;BME280;26644;50.248;19.032;2023-09-19T04:05:53;97390.31;;;18.90;79.13
40918;BME280;26644;50.248;19.032;2023-09-19T04:09:01;97388.28;;;18.87;80.00
40918;BME280;26644;50.248;19.032;2023-09-19T04:12:08;97381.34;;;18.81;80.51
40918;BME280;26644;50.248;19.032;2023-09-19T04:15:13;97387.44;;;18.86;80.79
40918;BME280;26644;50.248;19.032;2023-09-19T04:18:18;97385.84;;;18.85;81.19
40918;BME280;26644;50.248;19.032;2023-09-19T04:21:24;97377.78;;;18.80;81.14
40918;BME280;26644;50.248;19.032;2023-09-19T04:24:32;97380.28;;;18.85;81.81
40918;BME280;26644;50.248;19.032;2023-09-19T04:27:36;97374.00;;;18.88;82.02
40918;BME280;26644;50.248;19.032;2023-09-19T04:30:42;97369.16;;;18.85;82.14
40918;BME280;26644;50.248;19.032;2023-09-19T04:33:46;97370.75;;;18.86;82.38
40918;BME280;26644;50.248;19.032;2023-09-19T04:36:51;97369.59;;;18.87;82.71
40918;BME280;26644;50.248;19.032;2023-09-19T04:40:00;97362.00;;;18.84;83.19
40918;BME280;26644;50.248;19.032;2023-09-19T04:43:07;97371.66;;;18.90;83.49
40918;BME280;26644;50.248;19.032;2023-09-19T04:46:11;97367.34;;;18.93;83.67
40918;BME280;26644;50.248;19.032;2023-09-19T04:49:16;97365.47;;;18.97;83.97
40918;BME280;26644;50.248;19.032;2023-09-19T04:52:21;97367.97;;;19.02;84.10
40918;BME280;26644;50.248;19.032;2023-09-19T04:55:28;97364.47;;;19.05;84.32
40918;BME280;26644;50.248;19.032;2023-09-19T04:58:33;97380.06;;;19.10;84.17
40918;BME280;26644;50.248;19.032;2023-09-19T05:01:38;97379.00;;;19.15;84.22
40918;BME280;26644;50.248;19.032;2023-09-19T05:04:43;97373.34;;;19.11;83.93
40918;BME280;26644;50.248;19.032;2023-09-19T05:07:48;97380.66;;;19.19;83.98
40918;BME280;26644;50.248;19.032;2023-09-19T05:10:57;97392.34;;;19.25;84.13
40918;BME280;26644;50.248;19.032;2023-09-19T05:14:03;97395.94;;;19.25;84.51
40918;BME280;26644;50.248;19.032;2023-09-19T05:17:07;97389.91;;;19.23;84.28
40918;BME280;26644;50.248;19.032;2023-09-19T05:20:12;97406.06;;;19.34;84.32
40918;BME280;26644;50.248;19.032;2023-09-19T05:23:25;97406.06;;;19.34;84.15
40918;BME280;26644;50.248;19.032;2023-09-19T05:26:33;97416.13;;;19.38;84.35
40918;BME280;26644;50.248;19.032;2023-09-19T05:29:37;97416.84;;;19.35;84.48
40918;BME280;26644;50.248;19.032;2023-09-19T05:32:43;97420.44;;;19.36;84.82
40918;BME280;26644;50.248;19.032;2023-09-19T05:35:50;97418.09;;;19.38;84.52
40918;BME280;26644;50.248;19.032;2023-09-19T05:38:55;97424.91;;;19.40;84.40
40918;BME280;26644;50.248;19.032;2023-09-19T05:42:06;97424.53;;;19.42;83.82
40918;BME280;26644;50.248;19.032;2023-09-19T05:45:11;97430.47;;;19.40;83.49
40918;BME280;26644;50.248;19.032;2023-09-19T05:48:19;97415.31;;;19.38;83.24
40918;BME280;26644;50.248;19.032;2023-09-19T05:51:24;97438.19;;;19.47;82.22
40918;BME280;26644;50.248;19.032;2023-09-19T05:54:29;97439.72;;;19.45;81.94
40918;BME280;26644;50.248;19.032;2023-09-19T05:57:37;97439.34;;;19.46;81.10
40918;BME280;26644;50.248;19.032;2023-09-19T06:00:43;97429.22;;;19.38;81.01
40918;BME280;26644;50.248;19.032;2023-09-19T06:03:50;97441.25;;;19.42;80.30
40918;BME280;26644;50.248;19.032;2023-09-19T06:06:54;97440.81;;;19.40;80.67
40918;BME280;26644;50.248;19.032;2023-09-19T06:10:00;97444.75;;;19.39;79.59
40918;BME280;26644;50.248;19.032;2023-09-19T06:13:06;97452.03;;;19.43;79.70
40918;BME280;26644;50.248;19.032;2023-09-19T06:16:12;97454.00;;;19.43;79.52
40918;BME280;26644;50.248;19.032;2023-09-19T06:19:16;97455.00;;;19.35;79.49
40918;BME280;26644;50.248;19.032;2023-09-19T06:22:24;97468.19;;;19.38;79.43
40918;BME280;26644;50.248;19.032;2023-09-19T06:25:29;97463.72;;;19.33;79.18
40918;BME280;26644;50.248;19.032;2023-09-19T06:28:36;97473.69;;;19.34;79.65
40918;BME280;26644;50.248;19.032;2023-09-19T06:31:41;97478.78;;;19.32;79.90
40918;BME280;26644;50.248;19.032;2023-09-19T06:34:51;97477.88;;;19.28;80.03
40918;BME280;26644;50.248;19.032;2023-09-19T06:37:56;97473.03;;;19.25;79.94
40918;BME280;26644;50.248;19.032;2023-09-19T06:41:02;97482.31;;;19.29;80.22
40918;BME280;26644;50.248;19.032;2023-09-19T06:44:10;97472.22;;;19.24;79.96
40918;BME280;26644;50.248;19.032;2023-09-19T06:47:15;97491.53;;;19.33;80.36
40918;BME280;26644;50.248;19.032;2023-09-19T06:50:21;97498.28;;;19.32;80.21
40918;BME280;26644;50.248;19.032;2023-09-19T06:53:27;97493.75;;;19.27;80.50
40918;BME280;26644;50.248;19.032;2023-09-19T06:56:32;97500.41;;;19.23;80.49
40918;BME280;26644;50.248;19.032;2023-09-19T06:59:40;97506.16;;;19.30;80.36
40918;BME280;26644;50.248;19.032;2023-09-19T07:02:55;97509.28;;;19.29;80.05
40918;BME280;26644;50.248;19.032;2023-09-19T07:06:02;97525.00;;;19.37;80.39
40918;BME280;26644;50.248;19.032;2023-09-19T07:09:07;97534.19;;;19.37;79.94
40918;BME280;26644;50.248;19.032;2023-09-19T07:12:12;97505.06;;;19.19;79.99
40918;BME280;26644;50.248;19.032;2023-09-19T07:15:19;97541.00;;;19.40;80.24
40918;BME280;26644;50.248;19.032;2023-09-19T07:18:26;97544.69;;;19.44;80.15
40918;BME280;26644;50.248;19.032;2023-09-19T07:21:31;97550.66;;;19.46;80.20
40918;BME280;26644;50.248;19.032;2023-09-19T07:24:37;97559.13;;;19.50;79.92
40918;BME280;26644;50.248;19.032;2023-09-19T07:27:41;97552.84;;;19.53;79.79
40918;BME280;26644;50.248;19.032;2023-09-19T07:30:49;97565.69;;;19.57;79.84
40918;BME280;26644;50.248;19.032;2023-09-19T07:33:53;97573.28;;;19.60;79.45
40918;BME280;26644;50.248;19.032;2023-09-19T07:36:58;97576.91;;;19.61;79.30
40918;BME280;26644;50.248;19.032;2023-09-19T07:40:04;97578.44;;;19.58;79.29
40918;BME280;26644;50.248;19.032;2023-09-19T07:43:11;97593.78;;;19.68;79.17
40918;BME280;26644;50.248;19.032;2023-09-19T07:46:17;97593.50;;;19.73;78.52
40918;BME280;26644;50.248;19.032;2023-09-19T07:49:24;97606.34;;;19.78;78.20
40918;BME280;26644;50.248;19.032;2023-09-19T07:52:28;97611.56;;;19.80;77.72
40918;BME280;26644;50.248;19.032;2023-09-19T07:55:35;97622.59;;;19.76;77.59
40918;BME280;26644;50.248;19.032;2023-09-19T07:58:41;97628.53;;;19.74;77.44
40918;BME280;26644;50.248;19.032;2023-09-19T08:01:49;97644.50;;;19.77;77.80
40918;BME280;26644;50.248;19.032;2023-09-19T08:04:54;97651.59;;;19.75;78.10
40918;BME280;26644;50.248;19.032;2023-09-19T08:08:00;97650.81;;;19.74;78.12
40918;BME280;26644;50.248;19.032;2023-09-19T08:11:05;97663.84;;;19.70;78.18
40918;BME280;26644;50.248;19.032;2023-09-19T08:14:14;97660.59;;;19.68;78.52
40918;BME280;26644;50.248;19.032;2023-09-19T08:17:20;97658.06;;;19.63;78.98
40918;BME280;26644;50.248;19.032;2023-09-19T08:20:26;97663.75;;;19.67;78.96
40918;BME280;26644;50.248;19.032;2023-09-19T08:23:30;97673.25;;;19.66;78.85
40918;BME280;26644;50.248;19.032;2023-09-19T08:26:35;97677.66;;;19.67;78.96
40918;BME280;26644;50.248;19.032;2023-09-19T08:29:40;97666.34;;;19.59;78.71
40918;BME280;26644;50.248;19.032;2023-09-19T08:32:47;97674.72;;;19.59;78.43
40918;BME280;26644;50.248;19.032;2023-09-19T08:35:51;97687.81;;;19.59;78.48
40918;BME280;26644;50.248;19.032;2023-09-19T08:38:56;97686.91;;;19.55;78.90
40918;BME280;26644;50.248;19.032;2023-09-19T08:42:01;97688.00;;;19.50;78.75
40918;BME280;26644;50.248;19.032;2023-09-19T08:45:07;97685.63;;;19.52;79.37
40918;BME280;26644;50.248;19.032;2023-09-19T08:48:23;97687.25;;;19.53;79.00
40918;BME280;26644;50.248;19.032;2023-09-19T08:51:38;97685.91;;;19.47;79.41
40918;BME280;26644;50.248;19.032;2023-09-19T08:54:50;97689.94;;;19.50;79.78
40918;BME280;26644;50.248;19.032;2023-09-19T08:58:00;97694.50;;;19.42;79.86
40918;BME280;26644;50.248;19.032;2023-09-19T09:01:10;97694.19;;;19.43;80.29
40918;BME280;26644;50.248;19.032;2023-09-19T09:04:19;97695.13;;;19.35;80.65
40918;BME280;26644;50.248;19.032;2023-09-19T09:07:27;97695.16;;;19.23;80.72
40918;BME280;26644;50.248;19.032;2023-09-19T09:10:33;97691.00;;;19.17;81.78
40918;BME280;26644;50.248;19.032;2023-09-19T09:13:38;97707.56;;;19.25;82.00
40918;BME280;26644;50.248;19.032;2023-09-19T09:16:44;97705.75;;;19.17;82.04
40918;BME280;26644;50.248;19.032;2023-09-19T09:19:52;97714.19;;;19.21;81.95
40918;BME280;26644;50.248;19.032;2023-09-19T09:22:58;97712.31;;;19.25;82.31
40918;BME280;26644;50.248;19.032;2023-09-19T09:26:04;97713.25;;;19.29;82.50
40918;BME280;26644;50.248;19.032;2023-09-19T09:29:11;97708.59;;;19.33;82.04
40918;BME280;26644;50.248;19.032;2023-09-19T09:32:23;97702.56;;;19.31;82.01
40918;BME280;26644;50.248;19.032;2023-09-19T09:35:33;97707.78;;;19.33;81.40
40918;BME280;26644;50.248;19.032;2023-09-19T09:38:44;97709.03;;;19.35;81.75
40918;BME280;26644;50.248;19.032;2023-09-19T09:41:50;97712.84;;;19.43;81.67
40918;BME280;26644;50.248;19.032;2023-09-19T09:45:12;97721.84;;;19.52;81.65
40918;BME280;26644;50.248;19.032;2023-09-19T09:48:24;97723.88;;;19.55;80.89
40918;BME280;26644;50.248;19.032;2023-09-19T09:51:35;97721.56;;;19.57;80.74
40918;BME280;26644;50.248;19.032;2023-09-19T09:54:58;97721.75;;;19.65;80.31
40918;BME280;26644;50.248;19.032;2023-09-19T09:58:27;97739.03;;;19.70;80.03
40918;BME280;26644;50.248;19.032;2023-09-19T10:01:46;97729.84;;;19.70;80.03
40918;BME280;26644;50.248;19.032;2023-09-19T10:04:52;97738.41;;;19.77;80.05
40918;BME280;26644;50.248;19.032;2023-09-19T10:08:11;97740.34;;;19.76;79.63
40918;BME280;26644;50.248;19.032;2023-09-19T10:11:19;97737.13;;;19.74;79.63
40918;BME280;26644;50.248;19.032;2023-09-19T10:14:37;97747.13;;;19.75;79.23
40918;BME280;26644;50.248;19.032;2023-09-19T10:17:44;97739.56;;;19.76;78.98
40918;BME280;26644;50.248;19.032;2023-09-19T10:20:50;97747.56;;;19.77;78.89
40918;BME280;26644;50.248;19.032;2023-09-19T10:23:58;97744.41;;;19.79;78.89
40918;BME280;26644;50.248;19.032;2023-09-19T10:27:09;97738.31;;;19.73;78.90
40918;BME280;26644;50.248;19.032;2023-09-19T10:30:20;97753.97;;;19.78;78.74
40918;BME280;26644;50.248;19.032;2023-09-19T10:33:36;97764.72;;;19.80;78.75
40918;BME280;26644;50.248;19.032;2023-09-19T10:36:45;97743.06;;;19.73;78.57
40918;BME280;26644;50.248;19.032;2023-09-19T10:39:56;97763.91;;;19.79;78.52
40918;BME280;26644;50.248;19.032;2023-09-19T10:43:03;97764.72;;;19.80;78.97
40918;BME280;26644;50.248;19.032;2023-09-19T10:46:09;97774.69;;;19.81;78.24
40918;BME280;26644;50.248;19.032;2023-09-19T10:49:14;97777.13;;;19.82;78.56
40918;BME280;26644;50.248;19.032;2023-09-19T10:52:24;97783.13;;;19.84;78.22
40918;BME280;26644;50.248;19.032;2023-09-19T10:55:34;97785.94;;;19.84;78.23
40918;BME280;26644;50.248;19.032;2023-09-19T10:58:40;97779.91;;;19.82;78.52
40918;BME280;26644;50.248;19.032;2023-09-19T11:01:47;97785.28;;;19.75;78.75
40918;BME280;26644;50.248;19.032;2023-09-19T11:04:53;97777.53;;;19.68;78.94
40918;BME280;26644;50.248;19.032;2023-09-19T11:07:58;97794.78;;;19.74;79.15
40918;BME280;26644;50.248;19.032;2023-09-19T11:11:38;97786.38;;;19.70;79.39
40918;BME280;26644;50.248;19.032;2023-09-19T11:14:47;97786.09;;;19.75;79.26
40918;BME280;26644;50.248;19.032;2023-09-19T11:17:54;97786.91;;;19.76;78.91
40918;BME280;26644;50.248;19.032;2023-09-19T11:24:44;97786.19;;;19.79;78.75
40918;BME280;26644;50.248;19.032;2023-09-19T11:31:43;97804.88;;;19.79;79.98
40918;BME280;26644;50.248;19.032;2023-09-19T11:34:49;97809.06;;;19.72;79.60
40918;BME280;26644;50.248;19.032;2023-09-19T11:38:03;97801.81;;;19.68;79.49
40918;BME280;26644;50.248;19.032;2023-09-19T11:41:38;97808.91;;;19.65;79.44
40918;BME280;26644;50.248;19.032;2023-09-19T11:44:48;97816.34;;;19.61;78.76
40918;BME280;26644;50.248;19.032;2023-09-19T11:47:57;97812.41;;;19.62;78.70
40918;BME280;26644;50.248;19.032;2023-09-19T11:51:24;97804.13;;;19.66;78.87
40918;BME280;26644;50.248;19.032;2023-09-19T11:54:32;97803.44;;;19.69;79.08
40918;BME280;26644;50.248;19.032;2023-09-19T11:57:39;97805.25;;;19.77;78.73
40918;BME280;26644;50.248;19.032;2023-09-19T12:00:54;97802.44;;;19.77;78.77
40918;BME280;26644;50.248;19.032;2023-09-19T12:04:02;97796.53;;;19.79;78.56
40918;BME280;26644;50.248;19.032;2023-09-19T12:07:09;97809.38;;;19.83;78.91
40918;BME280;26644;50.248;19.032;2023-09-19T12:10:17;97815.16;;;19.90;78.42
40918;BME280;26644;50.248;19.032;2023-09-19T12:13:24;97816.31;;;19.89;78.49
40918;BME280;26644;50.248;19.032;2023-09-19T12:16:32;97820.00;;;19.93;78.89
40918;BME280;26644;50.248;19.032;2023-09-19T12:19:37;97813.81;;;20.00;78.26
40918;BME280;26644;50.248;19.032;2023-09-19T12:22:44;97814.38;;;20.06;77.84
40918;BME280;26644;50.248;19.032;2023-09-19T12:25:50;97826.75;;;20.08;78.21
40918;BME280;26644;50.248;19.032;2023-09-19T12:28:58;97823.03;;;20.17;78.07
40918;BME280;26644;50.248;19.032;2023-09-19T12:32:08;97809.53;;;20.19;77.62
40918;BME280;26644;50.248;19.032;2023-09-19T12:35:27;97816.47;;;20.25;77.02
40918;BME280;26644;50.248;19.032;2023-09-19T12:38:32;97829.50;;;20.37;77.03
40918;BME280;26644;50.248;19.032;2023-09-19T12:41:37;97821.94;;;20.37;76.61
40918;BME280;26644;50.248;19.032;2023-09-19T12:44:44;97830.56;;;20.48;76.61
40918;BME280;26644;50.248;19.032;2023-09-19T12:48:23;97828.41;;;20.57;76.35
40918;BME280;26644;50.248;19.032;2023-09-19T12:51:35;97832.56;;;20.64;75.63
40918;BME280;26644;50.248;19.032;2023-09-19T12:54:40;97830.28;;;20.69;75.83
40918;BME280;26644;50.248;19.032;2023-09-19T12:57:59;97822.81;;;20.73;75.44
40918;BME280;26644;50.248;19.032;2023-09-19T13:01:14;97831.19;;;20.89;74.82
40918;BME280;26644;50.248;19.032;2023-09-19T13:04:22;97832.16;;;20.97;74.63
40918;BME280;26644;50.248;19.032;2023-09-19T13:07:41;97821.19;;;21.04;73.74
40918;BME280;26644;50.248;19.032;2023-09-19T13:11:03;97831.94;;;21.22;73.92
40918;BME280;26644;50.248;19.032;2023-09-19T13:14:16;97834.16;;;21.32;73.18
40918;BME280;26644;50.248;19.032;2023-09-19T13:17:22;97826.28;;;21.38;72.93
40918;BME280;26644;50.248;19.032;2023-09-19T13:20:30;97827.53;;;21.40;72.58
40918;BME280;26644;50.248;19.032;2023-09-19T13:23:41;97826.00;;;21.43;72.09
40918;BME280;26644;50.248;19.032;2023-09-19T13:26:47;97834.16;;;21.52;72.76
40918;BME280;26644;50.248;19.032;2023-09-19T13:29:51;97836.72;;;21.61;72.06
40918;BME280;26644;50.248;19.032;2023-09-19T13:33:05;97820.41;;;21.63;71.75
40918;BME280;26644;50.248;19.032;2023-09-19T13:36:13;97834.03;;;21.84;71.30
40918;BME280;26644;50.248;19.032;2023-09-19T13:39:20;97832.16;;;21.91;70.05
40918;BME280;26644;50.248;19.032;2023-09-19T13:42:25;97830.69;;;21.98;69.04
40918;BME280;26644;50.248;19.032;2023-09-19T13:45:31;97835.53;;;22.01;68.66
40918;BME280;26644;50.248;19.032;2023-09-19T13:48:35;97833.56;;;22.01;68.36
40918;BME280;26644;50.248;19.032;2023-09-19T13:51:43;97822.75;;;22.00;68.89
40918;BME280;26644;50.248;19.032;2023-09-19T13:54:47;97835.19;;;22.02;67.82
40918;BME280;26644;50.248;19.032;2023-09-19T13:57:52;97828.47;;;22.07;68.22
40918;BME280;26644;50.248;19.032;2023-09-19T14:00:58;97837.97;;;22.02;67.54
40918;BME280;26644;50.248;19.032;2023-09-19T14:04:04;97843.19;;;22.04;67.75
40918;BME280;26644;50.248;19.032;2023-09-19T14:07:11;97843.88;;;21.97;67.88
40918;BME280;26644;50.248;19.032;2023-09-19T14:10:16;97833.16;;;21.80;69.18
40918;BME280;26644;50.248;19.032;2023-09-19T14:13:21;97845.94;;;21.61;70.33
40918;BME280;26644;50.248;19.032;2023-09-19T14:16:27;97845.16;;;21.25;72.10
40918;BME280;26644;50.248;19.032;2023-09-19T14:19:32;97855.75;;;20.84;73.55
40918;BME280;26644;50.248;19.032;2023-09-19T14:22:41;97838.78;;;20.41;75.35
40918;BME280;26644;50.248;19.032;2023-09-19T14:25:45;97833.59;;;20.11;76.32
40918;BME280;26644;50.248;19.032;2023-09-19T14:28:50;97842.50;;;20.01;77.01
40918;BME280;26644;50.248;19.032;2023-09-19T14:31:54;97838.69;;;19.93;78.01
40918;BME280;26644;50.248;19.032;2023-09-19T14:34:59;97839.22;;;19.83;78.29
40918;BME280;26644;50.248;19.032;2023-09-19T14:38:06;97837.50;;;19.78;79.38
40918;BME280;26644;50.248;19.032;2023-09-19T14:41:11;97841.63;;;19.84;79.94
40918;BME280;26644;50.248;19.032;2023-09-19T14:44:15;97841.13;;;19.95;79.49
40918;BME280;26644;50.248;19.032;2023-09-19T14:47:21;97841.75;;;20.04;79.15
40918;BME280;26644;50.248;19.032;2023-09-19T14:50:26;97847.50;;;20.11;79.52
40918;BME280;26644;50.248;19.032;2023-09-19T14:53:34;97845.34;;;20.17;78.72
40918;BME280;26644;50.248;19.032;2023-09-19T14:56:39;97833.59;;;20.11;77.70
40918;BME280;26644;50.248;19.032;2023-09-19T14:59:47;97841.94;;;20.11;77.96
40918;BME280;26644;50.248;19.032;2023-09-19T15:02:51;97839.75;;;20.17;77.36
40918;BME280;26644;50.248;19.032;2023-09-19T15:05:59;97850.06;;;20.16;77.09
40918;BME280;26644;50.248;19.032;2023-09-19T15:09:08;97845.91;;;20.10;76.58
40918;BME280;26644;50.248;19.032;2023-09-19T15:12:13;97851.81;;;20.08;75.27
40918;BME280;26644;50.248;19.032;2023-09-19T15:15:18;97854.19;;;20.06;75.03
40918;BME280;26644;50.248;19.032;2023-09-19T15:18:23;97851.28;;;20.03;75.05
40918;BME280;26644;50.248;19.032;2023-09-19T15:21:27;97846.78;;;19.98;74.46
40918;BME280;26644;50.248;19.032;2023-09-19T15:24:35;97847.75;;;19.90;74.38
40918;BME280;26644;50.248;19.032;2023-09-19T15:27:39;97829.03;;;19.74;73.95
40918;BME280;26644;50.248;19.032;2023-09-19T15:30:46;97834.50;;;19.71;74.64
40918;BME280;26644;50.248;19.032;2023-09-19T15:33:51;97831.28;;;19.69;74.09
40918;BME280;26644;50.248;19.032;2023-09-19T15:36:56;97835.00;;;19.60;75.15
40918;BME280;26644;50.248;19.032;2023-09-19T15:40:04;97832.47;;;19.55;75.17
40918;BME280;26644;50.248;19.032;2023-09-19T15:43:12;97839.09;;;19.51;76.00
40918;BME280;26644;50.248;19.032;2023-09-19T15:46:18;97836.13;;;19.43;76.77
40918;BME280;26644;50.248;19.032;2023-09-19T15:49:24;97843.53;;;19.39;77.07
40918;BME280;26644;50.248;19.032;2023-09-19T15:52:28;97843.22;;;19.41;77.02
40918;BME280;26644;50.248;19.032;2023-09-19T15:55:38;97843.09;;;19.37;77.32
40918;BME280;26644;50.248;19.032;2023-09-19T15:58:45;97818.41;;;19.23;76.35
40918;BME280;26644;50.248;19.032;2023-09-19T16:01:50;97837.31;;;19.30;76.68
40918;BME280;26644;50.248;19.032;2023-09-19T16:04:54;97831.03;;;19.21;76.68
40918;BME280;26644;50.248;19.032;2023-09-19T16:08:02;97826.91;;;19.15;77.03
40918;BME280;26644;50.248;19.032;2023-09-19T16:11:11;97848.31;;;19.14;77.91
40918;BME280;26644;50.248;19.032;2023-09-19T16:14:16;97846.97;;;19.08;78.45
40918;BME280;26644;50.248;19.032;2023-09-19T16:17:20;97843.50;;;18.99;78.87
40918;BME280;26644;50.248;19.032;2023-09-19T16:20:25;97853.44;;;19.00;78.93
40918;BME280;26644;50.248;19.032;2023-09-19T16:23:30;97848.38;;;18.89;79.28
40918;BME280;26644;50.248;19.032;2023-09-19T16:26:39;97857.88;;;18.88;78.99
40918;BME280;26644;50.248;19.032;2023-09-19T16:29:44;97862.97;;;18.86;79.58
40918;BME280;26644;50.248;19.032;2023-09-19T16:32:50;97875.16;;;18.82;79.95